sensor_id;sensor_type;location;lat;lon;timestamp;P1;durP1;ratioP1;P2;durP2;ratioP2
71383;SDS011;61466;52.166;5.004;2022-12-18T00:01:36;21.02;;;6.75;;
71383;SDS011;61466;52.166;5.004;2022-12-18T00:04:03;21.48;;;8.57;;
71383;SDS011;61466;52.166;5.004;2022-12-18T00:06:30;22.63;;;9.23;;
71383;SDS011;61466;52.166;5.004;2022-12-18T00:08:57;19.08;;;9.63;;
71383;SDS011;61466;52.166;5.004;2022-12-18T00:11:25;24.73;;;9.68;;
71383;SDS011;61466;52.166;5.004;2022-12-18T00:13:53;22.83;;;9.18;;
71383;SDS011;61466;52.166;5.004;2022-12-18T00:16:21;24.65;;;9.93;;
71383;SDS011;61466;52.166;5.004;2022-12-18T00:18:48;12.90;;;7.25;;
71383;SDS011;61466;52.166;5.004;2022-12-18T00:21:14;19.10;;;9.48;;
71383;SDS011;61466;52.166;5.004;2022-12-18T00:23:40;17.63;;;6.88;;
71383;SDS011;61466;52.166;5.004;2022-12-18T00:26:09;21.55;;;8.80;;
71383;SDS011;61466;52.166;5.004;2022-12-18T00:28:36;19.48;;;7.88;;
71383;SDS011;61466;52.166;5.004;2022-12-18T00:31:09;29.75;;;9.02;;
71383;SDS011;61466;52.166;5.004;2022-12-18T00:33:36;17.83;;;8.40;;
71383;SDS011;61466;52.166;5.004;2022-12-18T00:36:05;22.60;;;9.52;;
71383;SDS011;61466;52.166;5.004;2022-12-18T00:38:33;21.98;;;9.57;;
71383;SDS011;61466;52.166;5.004;2022-12-18T00:40:59;22.90;;;8.25;;
71383;SDS011;61466;52.166;5.004;2022-12-18T00:43:24;19.15;;;5.75;;
71383;SDS011;61466;52.166;5.004;2022-12-18T00:45:50;18.27;;;9.20;;
71383;SDS011;61466;52.166;5.004;2022-12-18T00:48:15;27.92;;;9.95;;
71383;SDS011;61466;52.166;5.004;2022-12-18T00:50:41;19.73;;;9.50;;
71383;SDS011;61466;52.166;5.004;2022-12-18T00:53:06;17.33;;;8.20;;
71383;SDS011;61466;52.166;5.004;2022-12-18T00:55:32;3.05;;;2.38;;
71383;SDS011;61466;52.166;5.004;2022-12-18T00:57:57;13.10;;;7.18;;
71383;SDS011;61466;52.166;5.004;2022-12-18T01:00:22;18.58;;;7.30;;
71383;SDS011;61466;52.166;5.004;2022-12-18T01:02:48;18.63;;;8.45;;
71383;SDS011;61466;52.166;5.004;2022-12-18T01:05:13;19.65;;;8.93;;
71383;SDS011;61466;52.166;5.004;2022-12-18T01:07:39;20.40;;;9.30;;
71383;SDS011;61466;52.166;5.004;2022-12-18T01:10:05;15.40;;;6.05;;
71383;SDS011;61466;52.166;5.004;2022-12-18T01:12:32;21.75;;;9.05;;
71383;SDS011;61466;52.166;5.004;2022-12-18T01:14:58;28.63;;;10.82;;
71383;SDS011;61466;52.166;5.004;2022-12-18T01:17:23;17.75;;;8.13;;
71383;SDS011;61466;52.166;5.004;2022-12-18T01:19:49;18.30;;;8.27;;
71383;SDS011;61466;52.166;5.004;2022-12-18T01:22:14;21.23;;;8.65;;
71383;SDS011;61466;52.166;5.004;2022-12-18T01:24:40;18.90;;;7.97;;
71383;SDS011;61466;52.166;5.004;2022-12-18T01:27:05;10.23;;;4.07;;
71383;SDS011;61466;52.166;5.004;2022-12-18T01:29:31;21.23;;;9.07;;
71383;SDS011;61466;52.166;5.004;2022-12-18T01:31:56;24.05;;;9.80;;
71383;SDS011;61466;52.166;5.004;2022-12-18T01:34:22;15.25;;;6.05;;
71383;SDS011;61466;52.166;5.004;2022-12-18T01:36:48;20.83;;;8.85;;
71383;SDS011;61466;52.166;5.004;2022-12-18T01:39:14;21.45;;;10.68;;
71383;SDS011;61466;52.166;5.004;2022-12-18T01:41:40;21.05;;;9.13;;
71383;SDS011;61466;52.166;5.004;2022-12-18T01:47:43;20.02;;;7.90;;
71383;SDS011;61466;52.166;5.004;2022-12-18T01:50:21;18.30;;;6.57;;
71383;SDS011;61466;52.166;5.004;2022-12-18T01:52:51;15.57;;;7.70;;
71383;SDS011;61466;52.166;5.004;2022-12-18T01:55:19;17.67;;;8.70;;
71383;SDS011;61466;52.166;5.004;2022-12-18T01:57:47;26.02;;;9.68;;
71383;SDS011;61466;52.166;5.004;2022-12-18T02:00:15;20.90;;;9.02;;
71383;SDS011;61466;52.166;5.004;2022-12-18T02:02:43;13.63;;;7.50;;
71383;SDS011;61466;52.166;5.004;2022-12-18T02:05:09;19.85;;;7.60;;
71383;SDS011;61466;52.166;5.004;2022-12-18T02:10:22;15.65;;;10.00;;
71383;SDS011;61466;52.166;5.004;2022-12-18T02:13:03;17.77;;;6.78;;
71383;SDS011;61466;52.166;5.004;2022-12-18T02:15:40;17.58;;;7.28;;
71383;SDS011;61466;52.166;5.004;2022-12-18T02:18:26;33.90;;;11.90;;
71383;SDS011;61466;52.166;5.004;2022-12-18T02:21:17;22.65;;;9.40;;
71383;SDS011;61466;52.166;5.004;2022-12-18T02:23:57;20.05;;;7.65;;
71383;SDS011;61466;52.166;5.004;2022-12-18T02:26:48;18.83;;;6.90;;
71383;SDS011;61466;52.166;5.004;2022-12-18T02:29:17;25.90;;;8.88;;
71383;SDS011;61466;52.166;5.004;2022-12-18T02:31:50;18.80;;;6.93;;
71383;SDS011;61466;52.166;5.004;2022-12-18T02:34:18;18.90;;;7.63;;
71383;SDS011;61466;52.166;5.004;2022-12-18T02:36:47;23.25;;;9.90;;
71383;SDS011;61466;52.166;5.004;2022-12-18T02:39:14;18.80;;;8.05;;
71383;SDS011;61466;52.166;5.004;2022-12-18T02:41:40;26.40;;;7.25;;
71383;SDS011;61466;52.166;5.004;2022-12-18T02:44:07;21.33;;;9.93;;
71383;SDS011;61466;52.166;5.004;2022-12-18T02:46:35;15.90;;;7.10;;
71383;SDS011;61466;52.166;5.004;2022-12-18T02:51:54;18.33;;;6.80;;
71383;SDS011;61466;52.166;5.004;2022-12-18T02:56:54;25.80;;;8.93;;
71383;SDS011;61466;52.166;5.004;2022-12-18T02:59:31;16.95;;;8.15;;
71383;SDS011;61466;52.166;5.004;2022-12-18T03:02:10;13.77;;;7.18;;
71383;SDS011;61466;52.166;5.004;2022-12-18T03:04:44;14.25;;;6.07;;
71383;SDS011;61466;52.166;5.004;2022-12-18T03:07:37;15.27;;;7.47;;
71383;SDS011;61466;52.166;5.004;2022-12-18T03:10:07;13.10;;;6.80;;
71383;SDS011;61466;52.166;5.004;2022-12-18T03:12:39;16.60;;;8.07;;
71383;SDS011;61466;52.166;5.004;2022-12-18T03:15:10;22.80;;;8.75;;
71383;SDS011;61466;52.166;5.004;2022-12-18T03:17:43;22.08;;;8.23;;
71383;SDS011;61466;52.166;5.004;2022-12-18T03:20:17;30.25;;;9.52;;
71383;SDS011;61466;52.166;5.004;2022-12-18T03:22:45;19.40;;;8.93;;
71383;SDS011;61466;52.166;5.004;2022-12-18T03:25:14;12.35;;;6.50;;
71383;SDS011;61466;52.166;5.004;2022-12-18T03:27:43;17.08;;;9.52;;
71383;SDS011;61466;52.166;5.004;2022-12-18T03:30:14;16.60;;;8.10;;
71383;SDS011;61466;52.166;5.004;2022-12-18T03:32:43;15.05;;;7.40;;
71383;SDS011;61466;52.166;5.004;2022-12-18T03:35:10;18.52;;;9.00;;
71383;SDS011;61466;52.166;5.004;2022-12-18T03:37:45;17.65;;;8.13;;
71383;SDS011;61466;52.166;5.004;2022-12-18T03:40:10;18.58;;;7.30;;
71383;SDS011;61466;52.166;5.004;2022-12-18T03:42:49;16.92;;;8.52;;
71383;SDS011;61466;52.166;5.004;2022-12-18T03:45:41;19.90;;;9.40;;
71383;SDS011;61466;52.166;5.004;2022-12-18T03:48:19;19.60;;;7.60;;
71383;SDS011;61466;52.166;5.004;2022-12-18T03:50:56;15.25;;;7.55;;
71383;SDS011;61466;52.166;5.004;2022-12-18T03:53:29;20.95;;;9.00;;
71383;SDS011;61466;52.166;5.004;2022-12-18T03:55:56;13.48;;;7.25;;
71383;SDS011;61466;52.166;5.004;2022-12-18T03:58:24;20.52;;;8.02;;
71383;SDS011;61466;52.166;5.004;2022-12-18T04:00:51;8.63;;;6.25;;
71383;SDS011;61466;52.166;5.004;2022-12-18T04:03:21;15.35;;;8.80;;
71383;SDS011;61466;52.166;5.004;2022-12-18T04:05:48;15.02;;;6.35;;
71383;SDS011;61466;52.166;5.004;2022-12-18T04:08:16;14.43;;;8.20;;
71383;SDS011;61466;52.166;5.004;2022-12-18T04:10:42;17.90;;;7.72;;
71383;SDS011;61466;52.166;5.004;2022-12-18T04:13:08;8.48;;;6.72;;
71383;SDS011;61466;52.166;5.004;2022-12-18T04:15:34;11.52;;;6.55;;
71383;SDS011;61466;52.166;5.004;2022-12-18T04:18:01;21.35;;;7.18;;
71383;SDS011;61466;52.166;5.004;2022-12-18T04:20:27;15.13;;;7.20;;
71383;SDS011;61466;52.166;5.004;2022-12-18T04:22:52;10.43;;;6.28;;
71383;SDS011;61466;52.166;5.004;2022-12-18T04:25:18;15.52;;;6.53;;
71383;SDS011;61466;52.166;5.004;2022-12-18T04:27:43;11.10;;;5.45;;
71383;SDS011;61466;52.166;5.004;2022-12-18T04:30:08;10.80;;;6.45;;
71383;SDS011;61466;52.166;5.004;2022-12-18T04:32:34;15.05;;;6.70;;
71383;SDS011;61466;52.166;5.004;2022-12-18T04:34:59;17.08;;;7.05;;
71383;SDS011;61466;52.166;5.004;2022-12-18T04:37:25;14.38;;;8.27;;
71383;SDS011;61466;52.166;5.004;2022-12-18T04:39:50;17.35;;;7.03;;
71383;SDS011;61466;52.166;5.004;2022-12-18T04:42:15;10.93;;;9.60;;
71383;SDS011;61466;52.166;5.004;2022-12-18T04:44:41;11.50;;;7.07;;
71383;SDS011;61466;52.166;5.004;2022-12-18T04:47:06;12.63;;;6.00;;
71383;SDS011;61466;52.166;5.004;2022-12-18T04:49:32;14.20;;;7.03;;
71383;SDS011;61466;52.166;5.004;2022-12-18T04:51:57;15.90;;;8.20;;
71383;SDS011;61466;52.166;5.004;2022-12-18T04:54:23;15.52;;;7.20;;
71383;SDS011;61466;52.166;5.004;2022-12-18T04:56:48;18.40;;;8.13;;
71383;SDS011;61466;52.166;5.004;2022-12-18T04:59:14;10.38;;;6.68;;
71383;SDS011;61466;52.166;5.004;2022-12-18T05:01:39;6.97;;;5.85;;
71383;SDS011;61466;52.166;5.004;2022-12-18T05:04:04;18.08;;;6.97;;
71383;SDS011;61466;52.166;5.004;2022-12-18T05:06:30;18.67;;;8.52;;
71383;SDS011;61466;52.166;5.004;2022-12-18T05:08:55;11.55;;;6.55;;
71383;SDS011;61466;52.166;5.004;2022-12-18T05:11:21;8.70;;;6.47;;
71383;SDS011;61466;52.166;5.004;2022-12-18T05:13:46;19.70;;;8.20;;
71383;SDS011;61466;52.166;5.004;2022-12-18T05:16:12;11.70;;;6.60;;
71383;SDS011;61466;52.166;5.004;2022-12-18T05:18:39;16.73;;;8.27;;
71383;SDS011;61466;52.166;5.004;2022-12-18T05:21:04;5.90;;;4.53;;
71383;SDS011;61466;52.166;5.004;2022-12-18T05:23:30;9.00;;;5.60;;
71383;SDS011;61466;52.166;5.004;2022-12-18T05:28:25;13.13;;;6.35;;
71383;SDS011;61466;52.166;5.004;2022-12-18T05:30:55;13.82;;;5.53;;
71383;SDS011;61466;52.166;5.004;2022-12-18T05:33:23;9.48;;;5.30;;
71383;SDS011;61466;52.166;5.004;2022-12-18T05:35:54;11.50;;;5.03;;
71383;SDS011;61466;52.166;5.004;2022-12-18T05:38:22;9.05;;;4.78;;
71383;SDS011;61466;52.166;5.004;2022-12-18T05:40:49;15.48;;;6.70;;
71383;SDS011;61466;52.166;5.004;2022-12-18T05:43:15;14.93;;;5.65;;
71383;SDS011;61466;52.166;5.004;2022-12-18T05:45:41;8.73;;;5.65;;
71383;SDS011;61466;52.166;5.004;2022-12-18T05:48:07;11.30;;;5.80;;
71383;SDS011;61466;52.166;5.004;2022-12-18T05:50:37;8.75;;;5.78;;
71383;SDS011;61466;52.166;5.004;2022-12-18T05:53:04;11.93;;;6.07;;
71383;SDS011;61466;52.166;5.004;2022-12-18T05:55:34;3.80;;;3.30;;
71383;SDS011;61466;52.166;5.004;2022-12-18T05:58:00;11.65;;;4.15;;
71383;SDS011;61466;52.166;5.004;2022-12-18T06:00:26;6.47;;;4.07;;
71383;SDS011;61466;52.166;5.004;2022-12-18T06:02:51;5.70;;;4.28;;
71383;SDS011;61466;52.166;5.004;2022-12-18T06:05:16;7.32;;;4.32;;
71383;SDS011;61466;52.166;5.004;2022-12-18T06:07:42;3.88;;;3.38;;
71383;SDS011;61466;52.166;5.004;2022-12-18T06:10:07;4.50;;;2.88;;
71383;SDS011;61466;52.166;5.004;2022-12-18T06:12:33;5.80;;;3.53;;
71383;SDS011;61466;52.166;5.004;2022-12-18T06:14:58;10.20;;;4.40;;
71383;SDS011;61466;52.166;5.004;2022-12-18T06:17:28;9.73;;;4.40;;
71383;SDS011;61466;52.166;5.004;2022-12-18T06:19:57;7.90;;;4.53;;
71383;SDS011;61466;52.166;5.004;2022-12-18T06:22:22;6.90;;;4.25;;
71383;SDS011;61466;52.166;5.004;2022-12-18T06:24:47;12.02;;;5.43;;
71383;SDS011;61466;52.166;5.004;2022-12-18T06:27:13;10.52;;;5.22;;
71383;SDS011;61466;52.166;5.004;2022-12-18T06:29:39;4.25;;;2.15;;
71383;SDS011;61466;52.166;5.004;2022-12-18T06:32:04;6.25;;;3.28;;
71383;SDS011;61466;52.166;5.004;2022-12-18T06:34:29;4.57;;;3.08;;
71383;SDS011;61466;52.166;5.004;2022-12-18T06:36:55;5.45;;;4.10;;
71383;SDS011;61466;52.166;5.004;2022-12-18T06:39:20;9.32;;;4.43;;
71383;SDS011;61466;52.166;5.004;2022-12-18T06:41:45;5.20;;;4.57;;
71383;SDS011;61466;52.166;5.004;2022-12-18T06:44:10;7.72;;;4.07;;
71383;SDS011;61466;52.166;5.004;2022-12-18T06:46:36;9.18;;;4.22;;
71383;SDS011;61466;52.166;5.004;2022-12-18T06:49:02;8.75;;;3.92;;
71383;SDS011;61466;52.166;5.004;2022-12-18T06:51:28;7.30;;;4.38;;
71383;SDS011;61466;52.166;5.004;2022-12-18T06:53:53;6.53;;;3.65;;
71383;SDS011;61466;52.166;5.004;2022-12-18T06:56:19;7.18;;;4.05;;
71383;SDS011;61466;52.166;5.004;2022-12-18T06:58:44;4.47;;;3.80;;
71383;SDS011;61466;52.166;5.004;2022-12-18T07:01:10;6.20;;;3.63;;
71383;SDS011;61466;52.166;5.004;2022-12-18T07:03:37;7.13;;;3.90;;
71383;SDS011;61466;52.166;5.004;2022-12-18T07:06:03;9.93;;;4.65;;
71383;SDS011;61466;52.166;5.004;2022-12-18T07:08:30;5.45;;;3.70;;
71383;SDS011;61466;52.166;5.004;2022-12-18T07:10:56;6.47;;;4.13;;
71383;SDS011;61466;52.166;5.004;2022-12-18T07:13:21;6.28;;;3.60;;
71383;SDS011;61466;52.166;5.004;2022-12-18T07:15:46;7.28;;;3.20;;
71383;SDS011;61466;52.166;5.004;2022-12-18T07:18:12;6.10;;;4.20;;
71383;SDS011;61466;52.166;5.004;2022-12-18T07:20:37;9.70;;;4.57;;
71383;SDS011;61466;52.166;5.004;2022-12-18T07:23:03;3.90;;;3.30;;
71383;SDS011;61466;52.166;5.004;2022-12-18T07:25:30;6.65;;;4.55;;
71383;SDS011;61466;52.166;5.004;2022-12-18T07:27:55;8.90;;;2.97;;
71383;SDS011;61466;52.166;5.004;2022-12-18T07:30:20;10.55;;;5.05;;
71383;SDS011;61466;52.166;5.004;2022-12-18T07:32:46;9.75;;;4.38;;
71383;SDS011;61466;52.166;5.004;2022-12-18T07:35:11;14.50;;;5.18;;
71383;SDS011;61466;52.166;5.004;2022-12-18T07:37:37;5.63;;;3.95;;
71383;SDS011;61466;52.166;5.004;2022-12-18T07:40:02;4.45;;;2.83;;
71383;SDS011;61466;52.166;5.004;2022-12-18T07:42:27;7.95;;;4.75;;
71383;SDS011;61466;52.166;5.004;2022-12-18T07:44:56;8.82;;;4.82;;
71383;SDS011;61466;52.166;5.004;2022-12-18T07:47:21;6.03;;;2.72;;
71383;SDS011;61466;52.166;5.004;2022-12-18T07:49:47;6.50;;;4.03;;
71383;SDS011;61466;52.166;5.004;2022-12-18T07:52:12;6.45;;;3.92;;
71383;SDS011;61466;52.166;5.004;2022-12-18T07:54:38;6.35;;;3.85;;
71383;SDS011;61466;52.166;5.004;2022-12-18T07:57:03;6.70;;;3.60;;
71383;SDS011;61466;52.166;5.004;2022-12-18T07:59:29;4.55;;;4.07;;
71383;SDS011;61466;52.166;5.004;2022-12-18T08:01:54;4.95;;;2.67;;
71383;SDS011;61466;52.166;5.004;2022-12-18T08:04:20;4.43;;;2.10;;
71383;SDS011;61466;52.166;5.004;2022-12-18T08:06:45;5.80;;;3.22;;
71383;SDS011;61466;52.166;5.004;2022-12-18T08:09:11;6.55;;;3.35;;
71383;SDS011;61466;52.166;5.004;2022-12-18T08:11:36;8.52;;;3.25;;
71383;SDS011;61466;52.166;5.004;2022-12-18T08:14:01;10.07;;;4.90;;
71383;SDS011;61466;52.166;5.004;2022-12-18T08:16:27;8.75;;;5.30;;
71383;SDS011;61466;52.166;5.004;2022-12-18T08:18:53;3.80;;;3.15;;
71383;SDS011;61466;52.166;5.004;2022-12-18T08:21:20;6.80;;;3.60;;
71383;SDS011;61466;52.166;5.004;2022-12-18T08:23:48;6.50;;;4.05;;
71383;SDS011;61466;52.166;5.004;2022-12-18T08:26:14;4.82;;;3.47;;
71383;SDS011;61466;52.166;5.004;2022-12-18T08:28:40;7.55;;;3.40;;
71383;SDS011;61466;52.166;5.004;2022-12-18T08:31:06;8.48;;;4.85;;
71383;SDS011;61466;52.166;5.004;2022-12-18T08:33:33;4.30;;;3.28;;
71383;SDS011;61466;52.166;5.004;2022-12-18T08:35:59;5.03;;;2.75;;
71383;SDS011;61466;52.166;5.004;2022-12-18T08:38:25;4.82;;;3.42;;
71383;SDS011;61466;52.166;5.004;2022-12-18T08:40:57;4.93;;;3.38;;
71383;SDS011;61466;52.166;5.004;2022-12-18T08:43:27;7.97;;;3.42;;
71383;SDS011;61466;52.166;5.004;2022-12-18T08:46:10;9.63;;;3.97;;
71383;SDS011;61466;52.166;5.004;2022-12-18T08:48:36;8.68;;;3.92;;
71383;SDS011;61466;52.166;5.004;2022-12-18T08:51:01;6.50;;;3.85;;
71383;SDS011;61466;52.166;5.004;2022-12-18T08:53:27;8.10;;;3.22;;
71383;SDS011;61466;52.166;5.004;2022-12-18T08:55:52;7.15;;;3.85;;
71383;SDS011;61466;52.166;5.004;2022-12-18T08:58:18;6.25;;;3.00;;
71383;SDS011;61466;52.166;5.004;2022-12-18T09:00:44;5.95;;;4.47;;
71383;SDS011;61466;52.166;5.004;2022-12-18T09:03:13;4.75;;;3.67;;
71383;SDS011;61466;52.166;5.004;2022-12-18T09:05:40;7.50;;;3.05;;
71383;SDS011;61466;52.166;5.004;2022-12-18T09:08:05;4.43;;;3.65;;
71383;SDS011;61466;52.166;5.004;2022-12-18T09:10:31;8.75;;;4.03;;
71383;SDS011;61466;52.166;5.004;2022-12-18T09:12:57;9.80;;;4.75;;
71383;SDS011;61466;52.166;5.004;2022-12-18T09:15:22;4.47;;;3.50;;
71383;SDS011;61466;52.166;5.004;2022-12-18T09:17:47;6.47;;;3.92;;
71383;SDS011;61466;52.166;5.004;2022-12-18T09:20:14;9.18;;;5.13;;
71383;SDS011;61466;52.166;5.004;2022-12-18T09:22:40;5.28;;;3.53;;
71383;SDS011;61466;52.166;5.004;2022-12-18T09:25:05;10.77;;;4.40;;
71383;SDS011;61466;52.166;5.004;2022-12-18T09:27:33;3.92;;;3.45;;
71383;SDS011;61466;52.166;5.004;2022-12-18T09:29:58;7.97;;;3.40;;
71383;SDS011;61466;52.166;5.004;2022-12-18T09:32:23;7.95;;;3.83;;
71383;SDS011;61466;52.166;5.004;2022-12-18T09:34:49;6.80;;;4.32;;
71383;SDS011;61466;52.166;5.004;2022-12-18T09:37:14;6.45;;;3.60;;
71383;SDS011;61466;52.166;5.004;2022-12-18T09:39:39;9.63;;;3.42;;
71383;SDS011;61466;52.166;5.004;2022-12-18T09:42:05;7.10;;;3.30;;
71383;SDS011;61466;52.166;5.004;2022-12-18T09:45:04;5.28;;;3.10;;
71383;SDS011;61466;52.166;5.004;2022-12-18T09:47:33;6.25;;;4.35;;
71383;SDS011;61466;52.166;5.004;2022-12-18T09:50:17;5.63;;;4.55;;
71383;SDS011;61466;52.166;5.004;2022-12-18T09:53:15;5.40;;;3.20;;
71383;SDS011;61466;52.166;5.004;2022-12-18T09:55:45;6.22;;;3.55;;
71383;SDS011;61466;52.166;5.004;2022-12-18T09:58:20;6.43;;;4.78;;
71383;SDS011;61466;52.166;5.004;2022-12-18T10:00:58;6.05;;;3.95;;
71383;SDS011;61466;52.166;5.004;2022-12-18T10:03:23;8.73;;;4.50;;
71383;SDS011;61466;52.166;5.004;2022-12-18T10:20:34;4.35;;;3.00;;
71383;SDS011;61466;52.166;5.004;2022-12-18T10:26:09;7.00;;;3.95;;
71383;SDS011;61466;52.166;5.004;2022-12-18T10:28:36;8.93;;;3.65;;
71383;SDS011;61466;52.166;5.004;2022-12-18T10:31:07;6.00;;;4.60;;
71383;SDS011;61466;52.166;5.004;2022-12-18T10:33:41;6.82;;;3.53;;
71383;SDS011;61466;52.166;5.004;2022-12-18T10:36:07;8.18;;;4.05;;
71383;SDS011;61466;52.166;5.004;2022-12-18T10:38:32;12.82;;;4.32;;
71383;SDS011;61466;52.166;5.004;2022-12-18T10:40:59;5.20;;;2.80;;
71383;SDS011;61466;52.166;5.004;2022-12-18T10:43:33;8.93;;;5.38;;
71383;SDS011;61466;52.166;5.004;2022-12-18T10:51:15;10.77;;;4.47;;
71383;SDS011;61466;52.166;5.004;2022-12-18T10:53:50;7.05;;;4.50;;
71383;SDS011;61466;52.166;5.004;2022-12-18T10:56:19;7.65;;;5.55;;
71383;SDS011;61466;52.166;5.004;2022-12-18T10:58:46;9.98;;;4.13;;
71383;SDS011;61466;52.166;5.004;2022-12-18T11:01:21;10.88;;;3.38;;
71383;SDS011;61466;52.166;5.004;2022-12-18T11:06:19;11.52;;;4.53;;
71383;SDS011;61466;52.166;5.004;2022-12-18T11:09:01;7.68;;;3.60;;
71383;SDS011;61466;52.166;5.004;2022-12-18T11:11:26;7.43;;;4.75;;
71383;SDS011;61466;52.166;5.004;2022-12-18T11:14:01;5.45;;;2.70;;
71383;SDS011;61466;52.166;5.004;2022-12-18T11:16:29;8.52;;;5.60;;
71383;SDS011;61466;52.166;5.004;2022-12-18T11:19:13;9.63;;;4.65;;
71383;SDS011;61466;52.166;5.004;2022-12-18T11:21:43;5.63;;;4.22;;
71383;SDS011;61466;52.166;5.004;2022-12-18T11:24:17;7.60;;;4.57;;
71383;SDS011;61466;52.166;5.004;2022-12-18T11:26:48;13.77;;;5.30;;
71383;SDS011;61466;52.166;5.004;2022-12-18T11:29:17;7.75;;;3.85;;
71383;SDS011;61466;52.166;5.004;2022-12-18T11:31:47;7.90;;;3.88;;
71383;SDS011;61466;52.166;5.004;2022-12-18T11:34:15;10.63;;;4.20;;
71383;SDS011;61466;52.166;5.004;2022-12-18T11:36:48;9.18;;;3.95;;
71383;SDS011;61466;52.166;5.004;2022-12-18T11:39:18;4.18;;;3.08;;
71383;SDS011;61466;52.166;5.004;2022-12-18T11:41:52;6.75;;;4.82;;
71383;SDS011;61466;52.166;5.004;2022-12-18T11:44:46;6.30;;;3.42;;
71383;SDS011;61466;52.166;5.004;2022-12-18T11:50:12;10.30;;;4.65;;
71383;SDS011;61466;52.166;5.004;2022-12-18T11:52:40;11.05;;;4.15;;
71383;SDS011;61466;52.166;5.004;2022-12-18T11:55:13;6.53;;;4.28;;
71383;SDS011;61466;52.166;5.004;2022-12-18T12:00:18;6.50;;;4.30;;
71383;SDS011;61466;52.166;5.004;2022-12-18T12:02:49;12.50;;;5.20;;
71383;SDS011;61466;52.166;5.004;2022-12-18T12:16:15;8.23;;;4.07;;
71383;SDS011;61466;52.166;5.004;2022-12-18T12:18:51;9.43;;;4.85;;
71383;SDS011;61466;52.166;5.004;2022-12-18T12:24:24;7.60;;;4.38;;
71383;SDS011;61466;52.166;5.004;2022-12-18T12:40:29;7.85;;;4.53;;
71383;SDS011;61466;52.166;5.004;2022-12-18T12:53:52;7.20;;;4.18;;
71383;SDS011;61466;52.166;5.004;2022-12-18T12:56:21;9.30;;;4.65;;
71383;SDS011;61466;52.166;5.004;2022-12-18T12:58:52;9.88;;;5.57;;
71383;SDS011;61466;52.166;5.004;2022-12-18T13:01:49;7.45;;;4.68;;
71383;SDS011;61466;52.166;5.004;2022-12-18T13:04:39;5.53;;;3.38;;
71383;SDS011;61466;52.166;5.004;2022-12-18T13:07:18;8.35;;;4.45;;
71383;SDS011;61466;52.166;5.004;2022-12-18T13:15:31;4.55;;;2.90;;
71383;SDS011;61466;52.166;5.004;2022-12-18T13:18:04;10.55;;;4.85;;
71383;SDS011;61466;52.166;5.004;2022-12-18T13:23:47;8.23;;;4.95;;
71383;SDS011;61466;52.166;5.004;2022-12-18T13:34:27;11.93;;;6.18;;
71383;SDS011;61466;52.166;5.004;2022-12-18T13:36:56;12.57;;;5.22;;
71383;SDS011;61466;52.166;5.004;2022-12-18T13:39:42;2.92;;;1.30;;
71383;SDS011;61466;52.166;5.004;2022-12-18T13:44:37;5.93;;;3.65;;
71383;SDS011;61466;52.166;5.004;2022-12-18T13:47:26;9.07;;;5.25;;
71383;SDS011;61466;52.166;5.004;2022-12-18T13:49:52;6.95;;;4.60;;
71383;SDS011;61466;52.166;5.004;2022-12-18T13:52:19;8.38;;;5.28;;
71383;SDS011;61466;52.166;5.004;2022-12-18T13:54:48;8.40;;;5.10;;
71383;SDS011;61466;52.166;5.004;2022-12-18T13:57:26;9.80;;;6.35;;
71383;SDS011;61466;52.166;5.004;2022-12-18T14:00:14;8.10;;;3.83;;
71383;SDS011;61466;52.166;5.004;2022-12-18T14:02:47;11.68;;;5.07;;
71383;SDS011;61466;52.166;5.004;2022-12-18T14:07:52;7.80;;;4.60;;
71383;SDS011;61466;52.166;5.004;2022-12-18T14:10:18;16.30;;;6.05;;
71383;SDS011;61466;52.166;5.004;2022-12-18T14:12:46;10.70;;;6.10;;
71383;SDS011;61466;52.166;5.004;2022-12-18T14:20:52;9.20;;;5.43;;
71383;SDS011;61466;52.166;5.004;2022-12-18T14:23:31;8.73;;;4.70;;
71383;SDS011;61466;52.166;5.004;2022-12-18T14:25:59;8.80;;;5.25;;
71383;SDS011;61466;52.166;5.004;2022-12-18T14:28:25;8.10;;;4.60;;
71383;SDS011;61466;52.166;5.004;2022-12-18T14:30:51;17.52;;;6.03;;
71383;SDS011;61466;52.166;5.004;2022-12-18T14:33:19;11.48;;;4.82;;
71383;SDS011;61466;52.166;5.004;2022-12-18T14:38:28;10.00;;;5.20;;
71383;SDS011;61466;52.166;5.004;2022-12-18T14:43:40;8.80;;;5.47;;
71383;SDS011;61466;52.166;5.004;2022-12-18T14:48:54;12.85;;;5.43;;
71383;SDS011;61466;52.166;5.004;2022-12-18T14:51:24;9.50;;;5.45;;
71383;SDS011;61466;52.166;5.004;2022-12-18T14:53:59;15.80;;;6.30;;
71383;SDS011;61466;52.166;5.004;2022-12-18T14:56:33;9.50;;;5.05;;
71383;SDS011;61466;52.166;5.004;2022-12-18T14:59:03;9.30;;;4.75;;
71383;SDS011;61466;52.166;5.004;2022-12-18T15:01:38;7.80;;;4.15;;
71383;SDS011;61466;52.166;5.004;2022-12-18T15:04:23;11.77;;;6.35;;
71383;SDS011;61466;52.166;5.004;2022-12-18T15:07:02;10.13;;;4.35;;
71383;SDS011;61466;52.166;5.004;2022-12-18T15:15:05;9.70;;;4.90;;
71383;SDS011;61466;52.166;5.004;2022-12-18T15:17:56;6.88;;;3.22;;
71383;SDS011;61466;52.166;5.004;2022-12-18T15:20:22;5.05;;;3.25;;
71383;SDS011;61466;52.166;5.004;2022-12-18T15:22:48;12.73;;;6.07;;
71383;SDS011;61466;52.166;5.004;2022-12-18T15:25:46;10.15;;;5.63;;
71383;SDS011;61466;52.166;5.004;2022-12-18T15:28:15;14.40;;;6.75;;
71383;SDS011;61466;52.166;5.004;2022-12-18T15:33:29;8.68;;;4.90;;
71383;SDS011;61466;52.166;5.004;2022-12-18T15:36:08;9.07;;;4.40;;
71383;SDS011;61466;52.166;5.004;2022-12-18T15:38:39;7.18;;;4.22;;
71383;SDS011;61466;52.166;5.004;2022-12-18T15:41:04;7.45;;;3.33;;
71383;SDS011;61466;52.166;5.004;2022-12-18T15:43:30;12.93;;;6.93;;
71383;SDS011;61466;52.166;5.004;2022-12-18T15:45:58;10.10;;;5.65;;
71383;SDS011;61466;52.166;5.004;2022-12-18T15:48:24;10.95;;;5.47;;
71383;SDS011;61466;52.166;5.004;2022-12-18T15:50:50;11.80;;;6.15;;
71383;SDS011;61466;52.166;5.004;2022-12-18T15:53:18;7.72;;;4.68;;
71383;SDS011;61466;52.166;5.004;2022-12-18T15:55:44;12.35;;;7.25;;
71383;SDS011;61466;52.166;5.004;2022-12-18T15:58:28;11.50;;;5.43;;
71383;SDS011;61466;52.166;5.004;2022-12-18T16:00:54;6.15;;;3.72;;
71383;SDS011;61466;52.166;5.004;2022-12-18T16:03:23;13.15;;;6.35;;
71383;SDS011;61466;52.166;5.004;2022-12-18T16:05:48;8.60;;;6.00;;
71383;SDS011;61466;52.166;5.004;2022-12-18T16:08:13;12.93;;;6.07;;
71383;SDS011;61466;52.166;5.004;2022-12-18T16:10:39;11.75;;;6.47;;
71383;SDS011;61466;52.166;5.004;2022-12-18T16:13:05;6.80;;;4.85;;
71383;SDS011;61466;52.166;5.004;2022-12-18T16:15:31;18.48;;;6.80;;
71383;SDS011;61466;52.166;5.004;2022-12-18T16:17:56;10.10;;;4.45;;
71383;SDS011;61466;52.166;5.004;2022-12-18T16:20:22;8.73;;;6.45;;
71383;SDS011;61466;52.166;5.004;2022-12-18T16:22:47;9.80;;;5.78;;
71383;SDS011;61466;52.166;5.004;2022-12-18T16:25:24;15.75;;;6.75;;
71383;SDS011;61466;52.166;5.004;2022-12-18T16:27:52;11.60;;;5.93;;
71383;SDS011;61466;52.166;5.004;2022-12-18T16:30:21;10.82;;;5.97;;
71383;SDS011;61466;52.166;5.004;2022-12-18T16:32:48;10.95;;;4.88;;
71383;SDS011;61466;52.166;5.004;2022-12-18T16:35:14;14.35;;;6.45;;
71383;SDS011;61466;52.166;5.004;2022-12-18T16:37:40;12.60;;;6.53;;
71383;SDS011;61466;52.166;5.004;2022-12-18T16:40:07;8.50;;;4.90;;
71383;SDS011;61466;52.166;5.004;2022-12-18T16:42:35;14.60;;;6.75;;
71383;SDS011;61466;52.166;5.004;2022-12-18T16:45:02;12.85;;;6.47;;
71383;SDS011;61466;52.166;5.004;2022-12-18T16:47:28;14.50;;;7.20;;
71383;SDS011;61466;52.166;5.004;2022-12-18T16:49:53;9.70;;;5.30;;
71383;SDS011;61466;52.166;5.004;2022-12-18T16:52:19;12.27;;;6.30;;
71383;SDS011;61466;52.166;5.004;2022-12-18T16:54:45;11.85;;;6.30;;
71383;SDS011;61466;52.166;5.004;2022-12-18T16:57:12;9.95;;;4.70;;
71383;SDS011;61466;52.166;5.004;2022-12-18T16:59:39;12.52;;;6.68;;